Time;durP1;ratioP1;P1;durP2;ratioP2;P2;SDS_P1;SDS_P2;PMS_P1;PMS_P2;Temp;Humidity;BMP_temperature;BMP_pressure;BME280_temperature;BME280_humidity;BME280_pressure;Samples;Min_cycle;Max_cycle;Signal;HPM_P1;HPM_P2
2022/09/17 00:09:21;;;;;;;;;;;;;;;;;;20745924;28;19925;-58
2022/09/17 00:19:24;;;;;;;;;;;;;;;;;;20746425;28;20378;-59
2022/09/17 00:29:26;;;;;;;;;;;;;;;;;;20754873;28;20036;-59
2022/09/17 00:39:28;;;;;;;;;;;;;;;;;;20760471;28;19929;-58
2022/09/17 00:49:29;;;;;;;;;;;;;;;;;;20758578;28;19983;-59
2022/09/17 00:59:31;;;;;;;;;;;;;;;;;;20758152;28;19991;-59
2022/09/17 01:09:33;;;;;;;;;;;;;;;;;;20757544;28;19929;-58
2022/09/17 01:19:35;;;;;;;;;;;;;;;;;;20759083;28;20382;-59
2022/09/17 01:29:38;;;;;;;;;;;;;;;;;;20755900;28;19929;-58
2022/09/17 01:39:47;;;;;;;;;;;;;;;;;;20754400;28;19972;-59
2022/09/17 01:49:50;;;;;;;;;;;;;;;;;;20754789;28;20290;-59
2022/09/17 01:59:51;;;;;;;;;;;;;;;;;;20753394;28;19930;-64
2022/09/17 02:09:54;;;;;;;;;;;;;;;;;;20753416;28;19929;-60
2022/09/17 02:19:57;;;;;;;;;;;;;;;;;;20753426;28;20428;-60
2022/09/17 02:30:00;;;;;;;;;;;;;;;;;;20751575;28;19925;-59
2022/09/17 02:40:02;;;;;;;;;;;;;;;;;;20750923;28;20297;-60
2022/09/17 02:50:04;;;;;;;;;;;;;;;;;;20750979;28;19930;-58
2022/09/17 03:00:06;;;;;;;;;;;;;;;;;;20749100;28;19925;-59
2022/09/17 03:10:08;;;;;;;;;;;;;;;;;;20748836;28;19933;-61
2022/09/17 03:20:09;;;;;;;;;;;;;;;;;;20748185;28;19933;-61
2022/09/17 03:30:11;;;;;;;;;;;;;;;;;;20747964;28;20231;-62
2022/09/17 03:40:12;;;;;;;;;;;;;;;;;;20749705;28;19979;-60
2022/09/17 03:50:14;;;;;;;;;;;;;;;;;;20747438;28;20023;-60
2022/09/17 04:00:16;;;;;;;;;;;;;;;;;;20751779;28;19925;-59
2022/09/17 04:10:18;;;;;;;;;;;;;;;;;;20762066;28;19981;-62
2022/09/17 04:20:20;;;;;;;;;;;;;;;;;;20761678;28;19932;-61
2022/09/17 04:30:22;;;;;;;;;;;;;;;;;;20760185;28;20382;-59
2022/09/17 04:40:24;;;;;;;;;;;;;;;;;;20759900;28;19929;-58
2022/09/17 04:50:27;;;;;;;;;;;;;;;;;;20759168;28;20020;-62
2022/09/17 05:00:29;;;;;;;;;;;;;;;;;;20758675;28;19925;-61
2022/09/17 05:10:32;;;;;;;;;;;;;;;;;;20739645;28;19925;-60
2022/09/17 05:20:34;;;;;;;;;;;;;;;;;;20756756;28;20289;-61
2022/09/17 05:30:35;;;;;;;;;;;;;;;;;;20755728;28;19925;-61
2022/09/17 05:40:37;;;;;;;;;;;;;;;;;;20755982;28;19932;-61
2022/09/17 05:50:40;;;;;;;;;;;;;;;;;;20754418;28;19933;-61
2022/09/17 06:00:42;;;;;;;;;;;;;;;;;;20753417;28;19925;-62
2022/09/17 06:10:44;;;;;;;;;;;;;;;;;;20753539;28;20384;-61
2022/09/17 06:20:46;;;;;;;;;;;;;;;;;;20753141;28;20025;-59
2022/09/17 06:30:48;;;;;;;;;;;;;;;;;;20751221;28;19925;-59
2022/09/17 06:40:51;;;;;;;;;;;;;;;;;;20751839;28;19937;-59
2022/09/17 06:50:53;;;;;;;;;;;;;;;;;;20750962;28;19925;-59
2022/09/17 07:00:55;;;;;;;;;;;;;;;;;;20750946;28;20412;-58
2022/09/17 07:10:56;;;;;;;;;;;;;;;;;;20748837;28;20366;-60
2022/09/17 07:20:59;;;;;;;;;;;;;;;;;;20748880;28;19932;-61
2022/09/17 07:31:01;;;;;;;;;;;;;;;;;;20747872;28;19972;-60
2022/09/17 07:41:04;;;;;;;;;;;;;;;;;;20761689;28;19925;-59
2022/09/17 07:51:06;;;;;;;;;;;;;;;;;;20763705;28;19932;-61
2022/09/17 08:01:08;;;;;;;;;;;;;;;;;;20763085;28;20390;-60
2022/09/17 08:11:10;;;;;;;;;;;;;;;;;;20762008;28;19956;-60
2022/09/17 08:21:12;;;;;;;;;;;;;;;;;;20761856;28;19959;-60
2022/09/17 08:31:14;;;;;;;;;;;;;;;;;;20759573;28;19930;-59
2022/09/17 08:41:16;;;;;;;;;;;;;;;;;;20760067;28;19926;-61
2022/09/17 08:51:18;;;;;;;;;;;;;;;;;;20759593;28;20385;-60
2022/09/17 09:01:19;;;;;;;;;;;;;;;;;;20760338;28;19980;-61
2022/09/17 09:11:21;;;;;;;;;;;;;;;;;;20758423;28;19925;-60
2022/09/17 09:21:23;;;;;;;;;;;;;;;;;;20740132;28;19951;-60
2022/09/17 09:31:25;;;;;;;;;;;;;;;;;;20756431;28;19929;-63
2022/09/17 09:41:27;;;;;;;;;;;;;;;;;;20757122;28;19932;-61
2022/09/17 09:51:29;;;;;;;;;;;;;;;;;;20754772;28;19925;-61
2022/09/17 10:01:31;;;;;;;;;;;;;;;;;;20751562;28;20309;-62
2022/09/17 10:11:32;;;;;;;;;;;;;;;;;;20752868;28;19925;-59
2022/09/17 10:21:34;;;;;;;;;;;;;;;;;;20734831;28;19969;-62
2022/09/17 10:31:36;;;;;;;;;;;;;;;;;;20751122;28;20485;-62
2022/09/17 10:41:38;;;;;;;;;;;;;;;;;;20750640;28;19933;-60
2022/09/17 10:51:40;;;;;;;;;;;;;;;;;;20731404;28;19944;-61
2022/09/17 11:01:42;;;;;;;;;;;;;;;;;;20748688;28;20334;-57
2022/09/17 11:11:45;;;;;;;;;;;;;;;;;;20747841;28;19926;-58
2022/09/17 11:21:47;;;;;;;;;;;;;;;;;;20747646;28;19926;-57
2022/09/17 11:31:49;;;;;;;;;;;;;;;;;;20729060;28;19926;-58
2022/09/17 11:41:51;;;;;;;;;;;;;;;;;;20747741;28;20305;-60
2022/09/17 11:51:53;;;;;;;;;;;;;;;;;;20730943;28;19979;-60
2022/09/17 12:01:56;;;;;;;;;;;;;;;;;;20747461;28;19930;-60
2022/09/17 12:11:58;;;;;;;;;;;;;;;;;;20747469;28;19961;-60
2022/09/17 12:22:00;;;;;;;;;;;;;;;;;;20750684;28;19925;-60
2022/09/17 12:32:02;;;;;;;;;;;;;;;;;;20760828;28;19925;-61
2022/09/17 12:42:03;;;;;;;;;;;;;;;;;;20760489;28;19926;-66
2022/09/17 12:52:05;;;;;;;;;;;;;;;;;;20760715;28;19929;-62
2022/09/17 13:02:07;;;;;;;;;;;;;;;;;;20741449;28;19972;-63
2022/09/17 13:12:10;;;;;;;;;;;;;;;;;;20758152;28;19933;-63
2022/09/17 13:22:29;;;;;;;;;;;;;;;;;;20757748;28;20362;-62
2022/09/17 13:32:32;;;;;;;;;;;;;;;;;;20756096;28;20300;-61
2022/09/17 13:42:36;;;;;;;;;;;;;;;;;;20756709;28;19925;-64
2022/09/17 13:52:38;;;;;;;;;;;;;;;;;;20756309;28;19945;-62
2022/09/17 14:02:40;;;;;;;;;;;;;;;;;;20755354;28;19925;-63
2022/09/17 14:12:51;;;;;;;;;;;;;;;;;;20753292;28;19933;-62
2022/09/17 14:22:52;;;;;;;;;;;;;;;;;;20753303;28;19929;-63
2022/09/17 14:32:54;;;;;;;;;;;;;;;;;;20751316;28;19972;-63
2022/09/17 14:42:55;;;;;;;;;;;;;;;;;;20750089;28;20016;-63
2022/09/17 14:52:57;;;;;;;;;;;;;;;;;;20751280;28;19925;-62
2022/09/17 15:02:59;;;;;;;;;;;;;;;;;;20750194;28;19929;-63
2022/09/17 15:13:01;;;;;;;;;;;;;;;;;;20749308;28;20378;-63
2022/09/17 15:23:03;;;;;;;;;;;;;;;;;;20748666;28;19961;-63
2022/09/17 15:33:05;;;;;;;;;;;;;;;;;;20747611;28;20007;-63
2022/09/17 15:43:07;;;;;;;;;;;;;;;;;;20748401;28;19957;-62
2022/09/17 15:53:09;;;;;;;;;;;;;;;;;;20747114;28;20289;-63
2022/09/17 16:03:11;;;;;;;;;;;;;;;;;;20761925;28;19981;-61
2022/09/17 16:13:12;;;;;;;;;;;;;;;;;;20761694;28;19952;-62
2022/09/17 16:23:14;;;;;;;;;;;;;;;;;;20760905;28;20430;-62
2022/09/17 16:33:16;;;;;;;;;;;;;;;;;;20759754;28;19964;-62
2022/09/17 16:43:18;;;;;;;;;;;;;;;;;;20759964;28;19925;-64
2022/09/17 16:53:19;;;;;;;;;;;;;;;;;;20759123;28;19932;-63
2022/09/17 17:03:21;;;;;;;;;;;;;;;;;;20757832;28;19926;-62
2022/09/17 17:13:23;;;;;;;;;;;;;;;;;;20756566;28;19925;-62
2022/09/17 17:23:26;;;;;;;;;;;;;;;;;;20756297;28;19956;-62
2022/09/17 17:33:27;;;;;;;;;;;;;;;;;;20755596;28;20389;-62
2022/09/17 17:43:29;;;;;;;;;;;;;;;;;;20755328;28;19926;-63
2022/09/17 17:53:31;;;;;;;;;;;;;;;;;;20730304;28;20020;-62
2022/09/17 18:03:33;;;;;;;;;;;;;;;;;;20753981;28;19929;-64
2022/09/17 18:13:35;;;;;;;;;;;;;;;;;;20759730;28;19933;-61
2022/09/17 18:23:37;;;;;;;;;;;;;;;;;;20753587;28;19925;-62
2022/09/17 18:33:39;;;;;;;;;;;;;;;;;;20751446;28;20352;-62
2022/09/17 18:43:41;;;;;;;;;;;;;;;;;;20751389;28;19995;-63
2022/09/17 18:53:43;;;;;;;;;;;;;;;;;;20751196;28;19960;-62
2022/09/17 19:03:45;;;;;;;;;;;;;;;;;;20750307;28;19956;-62
2022/09/17 19:13:50;;;;;;;;;;;;;;;;;;20749755;28;19933;-63
2022/09/17 19:23:52;;;;;;;;;;;;;;;;;;20749316;28;19932;-62
2022/09/17 19:33:54;;;;;;;;;;;;;;;;;;20747260;28;19926;-62
2022/09/17 19:43:56;;;;;;;;;;;;;;;;;;20747851;28;20378;-63
2022/09/17 19:53:58;;;;;;;;;;;;;;;;;;20729932;28;20334;-62
2022/09/17 20:04:00;;;;;;;;;;;;;;;;;;20748180;28;20389;-63
2022/09/17 20:14:05;;;;;;;;;;;;;;;;;;20746630;28;19925;-63
2022/09/17 20:24:06;;;;;;;;;;;;;;;;;;20746644;28;19925;-61
2022/09/17 20:34:09;;;;;;;;;;;;;;;;;;20745322;28;19995;-63
2022/09/17 20:44:11;;;;;;;;;;;;;;;;;;20751393;28;19925;-62
2022/09/17 20:54:13;;;;;;;;;;;;;;;;;;20759695;28;19933;-63
2022/09/17 21:04:15;;;;;;;;;;;;;;;;;;20758715;28;19925;-62
2022/09/17 21:14:18;;;;;;;;;;;;;;;;;;20758156;28;19972;-62
2022/09/17 21:24:20;;;;;;;;;;;;;;;;;;20758639;28;19925;-62
2022/09/17 21:34:22;;;;;;;;;;;;;;;;;;20755930;28;19941;-63
2022/09/17 21:44:24;;;;;;;;;;;;;;;;;;20756240;28;19925;-63
2022/09/17 21:54:26;;;;;;;;;;;;;;;;;;20753715;28;19930;-62
2022/09/17 22:04:28;;;;;;;;;;;;;;;;;;20754396;28;19933;-61
2022/09/17 22:14:29;;;;;;;;;;;;;;;;;;20753589;28;19930;-61
2022/09/17 22:24:32;;;;;;;;;;;;;;;;;;20755042;28;19925;-62
2022/09/17 22:34:33;;;;;;;;;;;;;;;;;;20752354;28;19972;-62
2022/09/17 22:44:35;;;;;;;;;;;;;;;;;;20753478;28;19936;-62
2022/09/17 22:54:39;;;;;;;;;;;;;;;;;;20750937;28;19925;-62
2022/09/17 23:04:43;;;;;;;;;;;;;;;;;;20749357;28;20210;-63
2022/09/17 23:14:45;;;;;;;;;;;;;;;;;;20750238;28;19930;-63
2022/09/17 23:24:48;;;;;;;;;;;;;;;;;;20750374;28;20432;-64
2022/09/17 23:34:53;;;;;;;;;;;;;;;;;;20749293;28;19925;-63
2022/09/17 23:44:55;;;;;;;;;;;;;;;;;;20749426;28;20283;-63
2022/09/17 23:54:57;;;;;;;;;;;;;;;;;;20731491;28;19925;-64
